Woodsboro, Maryland
Current Conditions -  °F | °C
As of 4:45 PM on Sunday 25 Jan 2015 (Local Time) from KFDK Reporting Station
Overcast Overcast  
Wind Chill: 41°   Ceiling: 6000
Heat Index: 45°   Visibility: 10mi
Dew Point: 32°   Wind: 7mph
Humidity: 61%   Direction: 210°SSW
Pressure: 29.84"   Gusts: NA
Location:  39.53°N, 77.31°W
Report Text: KFDK 252145Z 21006KT 10SM OVC060 07/00 A2984
Loading
Personal Weather Stations






























Interactive Weather Map New forecast layout! Learn more

10-Day Weather Forecast

Advertisements
Track Severe Weather on mobile